sensor_id;sensor_type;location;lat;lon;timestamp;P1;durP1;ratioP1;P2;durP2;ratioP2
70866;SDS011;58487;53.474;49.470;2023-11-21T00:00:33;11.65;;;2.95;;
70866;SDS011;58487;53.474;49.470;2023-11-21T00:03:00;8.80;;;3.40;;
70866;SDS011;58487;53.474;49.470;2023-11-21T00:05:26;7.50;;;3.20;;
70866;SDS011;58487;53.474;49.470;2023-11-21T00:07:52;7.32;;;2.90;;
70866;SDS011;58487;53.474;49.470;2023-11-21T00:10:18;6.40;;;2.58;;
70866;SDS011;58487;53.474;49.470;2023-11-21T00:12:44;7.07;;;2.92;;
70866;SDS011;58487;53.474;49.470;2023-11-21T00:15:10;10.73;;;2.90;;
70866;SDS011;58487;53.474;49.470;2023-11-21T00:17:39;16.37;;;3.97;;
70866;SDS011;58487;53.474;49.470;2023-11-21T00:20:06;7.32;;;3.15;;
70866;SDS011;58487;53.474;49.470;2023-11-21T00:22:35;6.85;;;2.97;;
70866;SDS011;58487;53.474;49.470;2023-11-21T00:25:02;7.20;;;3.45;;
70866;SDS011;58487;53.474;49.470;2023-11-21T00:27:29;8.57;;;2.95;;
70866;SDS011;58487;53.474;49.470;2023-11-21T00:29:55;6.27;;;2.77;;
70866;SDS011;58487;53.474;49.470;2023-11-21T00:32:22;8.02;;;3.42;;
70866;SDS011;58487;53.474;49.470;2023-11-21T00:34:48;11.52;;;3.83;;
70866;SDS011;58487;53.474;49.470;2023-11-21T00:37:14;7.90;;;3.20;;
70866;SDS011;58487;53.474;49.470;2023-11-21T00:39:40;8.27;;;4.00;;
70866;SDS011;58487;53.474;49.470;2023-11-21T00:42:06;7.23;;;3.10;;
70866;SDS011;58487;53.474;49.470;2023-11-21T00:44:33;7.90;;;3.03;;
70866;SDS011;58487;53.474;49.470;2023-11-21T00:47:03;7.78;;;2.63;;
70866;SDS011;58487;53.474;49.470;2023-11-21T00:49:29;9.02;;;3.55;;
70866;SDS011;58487;53.474;49.470;2023-11-21T00:51:55;6.60;;;2.75;;
70866;SDS011;58487;53.474;49.470;2023-11-21T00:54:23;6.63;;;2.60;;
70866;SDS011;58487;53.474;49.470;2023-11-21T00:56:49;7.18;;;3.17;;
70866;SDS011;58487;53.474;49.470;2023-11-21T00:59:15;8.50;;;2.85;;
70866;SDS011;58487;53.474;49.470;2023-11-21T01:01:41;6.60;;;3.28;;
70866;SDS011;58487;53.474;49.470;2023-11-21T01:04:07;5.27;;;2.40;;
70866;SDS011;58487;53.474;49.470;2023-11-21T01:06:33;10.60;;;3.63;;
70866;SDS011;58487;53.474;49.470;2023-11-21T01:08:59;7.95;;;3.30;;
70866;SDS011;58487;53.474;49.470;2023-11-21T01:11:25;8.60;;;3.33;;
70866;SDS011;58487;53.474;49.470;2023-11-21T01:13:51;7.45;;;3.08;;
70866;SDS011;58487;53.474;49.470;2023-11-21T01:16:18;6.93;;;3.17;;
70866;SDS011;58487;53.474;49.470;2023-11-21T01:18:44;11.20;;;3.78;;
70866;SDS011;58487;53.474;49.470;2023-11-21T01:21:10;9.20;;;3.65;;
70866;SDS011;58487;53.474;49.470;2023-11-21T01:23:37;7.47;;;3.40;;
70866;SDS011;58487;53.474;49.470;2023-11-21T01:26:03;7.78;;;4.03;;
70866;SDS011;58487;53.474;49.470;2023-11-21T01:28:29;10.33;;;4.27;;
70866;SDS011;58487;53.474;49.470;2023-11-21T01:30:55;7.55;;;3.38;;
70866;SDS011;58487;53.474;49.470;2023-11-21T01:33:22;10.18;;;3.47;;
70866;SDS011;58487;53.474;49.470;2023-11-21T01:35:50;10.23;;;4.07;;
70866;SDS011;58487;53.474;49.470;2023-11-21T01:38:18;8.23;;;4.20;;
70866;SDS011;58487;53.474;49.470;2023-11-21T01:40:44;7.93;;;3.63;;
70866;SDS011;58487;53.474;49.470;2023-11-21T01:43:10;7.57;;;3.60;;
70866;SDS011;58487;53.474;49.470;2023-11-21T01:45:37;7.50;;;3.38;;
70866;SDS011;58487;53.474;49.470;2023-11-21T01:48:03;9.53;;;5.00;;
70866;SDS011;58487;53.474;49.470;2023-11-21T01:50:32;7.70;;;3.92;;
70866;SDS011;58487;53.474;49.470;2023-11-21T01:52:59;7.20;;;3.90;;
70866;SDS011;58487;53.474;49.470;2023-11-21T01:55:25;6.13;;;3.03;;
70866;SDS011;58487;53.474;49.470;2023-11-21T01:57:52;7.85;;;3.22;;
70866;SDS011;58487;53.474;49.470;2023-11-21T02:00:19;9.13;;;3.70;;
70866;SDS011;58487;53.474;49.470;2023-11-21T02:02:46;7.80;;;3.40;;
70866;SDS011;58487;53.474;49.470;2023-11-21T02:05:14;8.63;;;4.18;;
70866;SDS011;58487;53.474;49.470;2023-11-21T02:07:43;7.50;;;4.05;;
70866;SDS011;58487;53.474;49.470;2023-11-21T02:10:10;8.07;;;4.00;;
70866;SDS011;58487;53.474;49.470;2023-11-21T02:12:44;8.53;;;4.30;;
70866;SDS011;58487;53.474;49.470;2023-11-21T02:15:12;8.45;;;4.18;;
70866;SDS011;58487;53.474;49.470;2023-11-21T02:17:48;6.70;;;3.28;;
70866;SDS011;58487;53.474;49.470;2023-11-21T02:20:22;6.43;;;3.13;;
70866;SDS011;58487;53.474;49.470;2023-11-21T02:22:53;9.95;;;4.68;;
70866;SDS011;58487;53.474;49.470;2023-11-21T02:25:26;8.30;;;3.60;;
70866;SDS011;58487;53.474;49.470;2023-11-21T02:27:54;10.85;;;4.68;;
70866;SDS011;58487;53.474;49.470;2023-11-21T02:30:21;8.70;;;4.18;;
70866;SDS011;58487;53.474;49.470;2023-11-21T02:32:50;10.63;;;3.97;;
70866;SDS011;58487;53.474;49.470;2023-11-21T02:35:22;10.95;;;4.20;;
70866;SDS011;58487;53.474;49.470;2023-11-21T02:37:51;9.07;;;3.93;;
70866;SDS011;58487;53.474;49.470;2023-11-21T02:40:17;8.07;;;4.28;;
70866;SDS011;58487;53.474;49.470;2023-11-21T02:42:44;8.82;;;4.20;;
70866;SDS011;58487;53.474;49.470;2023-11-21T02:45:10;8.88;;;4.47;;
70866;SDS011;58487;53.474;49.470;2023-11-21T02:47:38;9.43;;;4.53;;
70866;SDS011;58487;53.474;49.470;2023-11-21T02:50:05;8.90;;;4.57;;
70866;SDS011;58487;53.474;49.470;2023-11-21T02:52:34;8.45;;;4.63;;
70866;SDS011;58487;53.474;49.470;2023-11-21T02:55:04;10.45;;;5.20;;
70866;SDS011;58487;53.474;49.470;2023-11-21T02:57:31;11.38;;;5.00;;
70866;SDS011;58487;53.474;49.470;2023-11-21T02:59:57;9.20;;;4.88;;
70866;SDS011;58487;53.474;49.470;2023-11-21T03:02:23;9.23;;;4.37;;
70866;SDS011;58487;53.474;49.470;2023-11-21T03:04:50;7.43;;;4.00;;
70866;SDS011;58487;53.474;49.470;2023-11-21T03:07:16;8.45;;;4.50;;
70866;SDS011;58487;53.474;49.470;2023-11-21T03:09:45;9.38;;;4.50;;
70866;SDS011;58487;53.474;49.470;2023-11-21T03:12:12;10.20;;;4.50;;
70866;SDS011;58487;53.474;49.470;2023-11-21T03:14:41;9.83;;;4.87;;
70866;SDS011;58487;53.474;49.470;2023-11-21T03:17:07;10.88;;;4.95;;
70866;SDS011;58487;53.474;49.470;2023-11-21T03:19:33;10.82;;;5.15;;
70866;SDS011;58487;53.474;49.470;2023-11-21T03:22:00;9.48;;;4.53;;
70866;SDS011;58487;53.474;49.470;2023-11-21T03:24:26;8.38;;;4.25;;
70866;SDS011;58487;53.474;49.470;2023-11-21T03:26:52;10.50;;;4.73;;
70866;SDS011;58487;53.474;49.470;2023-11-21T03:29:19;10.30;;;5.05;;
70866;SDS011;58487;53.474;49.470;2023-11-21T03:31:45;9.07;;;4.60;;
70866;SDS011;58487;53.474;49.470;2023-11-21T03:34:15;11.07;;;5.10;;
70866;SDS011;58487;53.474;49.470;2023-11-21T03:36:50;9.80;;;4.43;;
70866;SDS011;58487;53.474;49.470;2023-11-21T03:39:16;10.17;;;4.60;;
70866;SDS011;58487;53.474;49.470;2023-11-21T03:41:42;11.13;;;4.68;;
70866;SDS011;58487;53.474;49.470;2023-11-21T03:44:09;9.45;;;4.95;;
70866;SDS011;58487;53.474;49.470;2023-11-21T03:46:36;11.38;;;5.63;;
70866;SDS011;58487;53.474;49.470;2023-11-21T03:49:02;12.43;;;5.30;;
70866;SDS011;58487;53.474;49.470;2023-11-21T03:51:28;14.07;;;5.60;;
70866;SDS011;58487;53.474;49.470;2023-11-21T03:53:54;11.40;;;5.47;;
70866;SDS011;58487;53.474;49.470;2023-11-21T03:56:20;13.55;;;6.20;;
70866;SDS011;58487;53.474;49.470;2023-11-21T03:58:49;14.13;;;6.78;;
70866;SDS011;58487;53.474;49.470;2023-11-21T04:01:21;15.70;;;7.10;;
70866;SDS011;58487;53.474;49.470;2023-11-21T04:03:51;14.40;;;6.67;;
70866;SDS011;58487;53.474;49.470;2023-11-21T04:06:17;11.50;;;5.38;;
70866;SDS011;58487;53.474;49.470;2023-11-21T04:08:44;16.15;;;5.43;;
70866;SDS011;58487;53.474;49.470;2023-11-21T04:11:10;11.35;;;5.40;;
70866;SDS011;58487;53.474;49.470;2023-11-21T04:13:38;9.93;;;4.53;;
70866;SDS011;58487;53.474;49.470;2023-11-21T04:16:08;13.47;;;5.50;;
70866;SDS011;58487;53.474;49.470;2023-11-21T04:18:37;11.40;;;5.05;;
70866;SDS011;58487;53.474;49.470;2023-11-21T04:21:04;10.93;;;5.68;;
70866;SDS011;58487;53.474;49.470;2023-11-21T04:23:31;10.30;;;5.03;;
70866;SDS011;58487;53.474;49.470;2023-11-21T04:25:57;10.25;;;5.47;;
70866;SDS011;58487;53.474;49.470;2023-11-21T04:28:24;14.07;;;5.17;;
70866;SDS011;58487;53.474;49.470;2023-11-21T04:30:50;12.32;;;5.35;;
70866;SDS011;58487;53.474;49.470;2023-11-21T04:33:16;9.38;;;4.95;;
70866;SDS011;58487;53.474;49.470;2023-11-21T04:35:42;12.13;;;5.93;;
70866;SDS011;58487;53.474;49.470;2023-11-21T04:38:08;15.18;;;6.10;;
70866;SDS011;58487;53.474;49.470;2023-11-21T04:40:34;13.30;;;5.90;;
70866;SDS011;58487;53.474;49.470;2023-11-21T04:43:00;13.27;;;6.07;;
70866;SDS011;58487;53.474;49.470;2023-11-21T04:45:27;12.30;;;6.07;;
70866;SDS011;58487;53.474;49.470;2023-11-21T04:47:53;15.02;;;7.70;;
70866;SDS011;58487;53.474;49.470;2023-11-21T04:50:19;12.38;;;6.47;;
70866;SDS011;58487;53.474;49.470;2023-11-21T04:52:45;15.03;;;7.10;;
70866;SDS011;58487;53.474;49.470;2023-11-21T04:55:11;12.75;;;6.40;;
70866;SDS011;58487;53.474;49.470;2023-11-21T04:57:37;12.30;;;7.15;;
70866;SDS011;58487;53.474;49.470;2023-11-21T05:00:05;13.80;;;6.38;;
70866;SDS011;58487;53.474;49.470;2023-11-21T05:02:32;14.80;;;8.27;;
70866;SDS011;58487;53.474;49.470;2023-11-21T05:04:59;15.73;;;6.77;;
70866;SDS011;58487;53.474;49.470;2023-11-21T05:07:25;16.05;;;7.57;;
70866;SDS011;58487;53.474;49.470;2023-11-21T05:09:55;14.55;;;7.28;;
70866;SDS011;58487;53.474;49.470;2023-11-21T05:12:25;18.30;;;8.35;;
70866;SDS011;58487;53.474;49.470;2023-11-21T05:14:51;14.98;;;7.00;;
70866;SDS011;58487;53.474;49.470;2023-11-21T05:17:17;15.47;;;7.80;;
70866;SDS011;58487;53.474;49.470;2023-11-21T05:19:43;15.35;;;8.10;;
70866;SDS011;58487;53.474;49.470;2023-11-21T05:22:11;19.55;;;8.55;;
70866;SDS011;58487;53.474;49.470;2023-11-21T05:24:37;14.90;;;7.68;;
70866;SDS011;58487;53.474;49.470;2023-11-21T05:27:06;18.17;;;7.85;;
70866;SDS011;58487;53.474;49.470;2023-11-21T05:29:32;15.63;;;7.00;;
70866;SDS011;58487;53.474;49.470;2023-11-21T05:31:58;16.85;;;7.28;;
70866;SDS011;58487;53.474;49.470;2023-11-21T05:34:24;14.32;;;7.93;;
70866;SDS011;58487;53.474;49.470;2023-11-21T05:36:50;16.80;;;8.38;;
70866;SDS011;58487;53.474;49.470;2023-11-21T05:39:16;23.50;;;8.73;;
70866;SDS011;58487;53.474;49.470;2023-11-21T05:41:46;15.85;;;8.27;;
70866;SDS011;58487;53.474;49.470;2023-11-21T05:44:12;17.63;;;7.30;;
70866;SDS011;58487;53.474;49.470;2023-11-21T05:46:40;15.45;;;8.20;;
70866;SDS011;58487;53.474;49.470;2023-11-21T05:49:08;16.75;;;8.48;;
70866;SDS011;58487;53.474;49.470;2023-11-21T05:51:34;18.13;;;9.33;;
70866;SDS011;58487;53.474;49.470;2023-11-21T05:54:01;16.52;;;8.23;;
70866;SDS011;58487;53.474;49.470;2023-11-21T05:56:27;16.05;;;7.07;;
70866;SDS011;58487;53.474;49.470;2023-11-21T05:58:54;13.95;;;6.80;;
70866;SDS011;58487;53.474;49.470;2023-11-21T06:01:20;16.80;;;7.45;;
70866;SDS011;58487;53.474;49.470;2023-11-21T06:03:46;19.87;;;7.57;;
70866;SDS011;58487;53.474;49.470;2023-11-21T06:06:12;16.63;;;7.03;;
70866;SDS011;58487;53.474;49.470;2023-11-21T06:08:38;19.20;;;8.13;;
70866;SDS011;58487;53.474;49.470;2023-11-21T06:11:04;20.70;;;8.48;;
70866;SDS011;58487;53.474;49.470;2023-11-21T06:13:31;17.05;;;7.13;;
70866;SDS011;58487;53.474;49.470;2023-11-21T06:15:57;15.80;;;7.67;;
70866;SDS011;58487;53.474;49.470;2023-11-21T06:18:23;14.50;;;6.85;;
70866;SDS011;58487;53.474;49.470;2023-11-21T06:20:50;17.30;;;8.02;;
70866;SDS011;58487;53.474;49.470;2023-11-21T06:23:17;17.30;;;7.70;;
70866;SDS011;58487;53.474;49.470;2023-11-21T06:25:44;18.80;;;9.07;;
70866;SDS011;58487;53.474;49.470;2023-11-21T06:28:10;20.70;;;10.70;;
70866;SDS011;58487;53.474;49.470;2023-11-21T06:30:36;19.67;;;10.40;;
70866;SDS011;58487;53.474;49.470;2023-11-21T06:33:03;20.08;;;10.50;;
70866;SDS011;58487;53.474;49.470;2023-11-21T06:35:29;20.08;;;9.57;;
70866;SDS011;58487;53.474;49.470;2023-11-21T06:37:59;19.23;;;8.45;;
70866;SDS011;58487;53.474;49.470;2023-11-21T06:40:25;16.47;;;8.40;;
70866;SDS011;58487;53.474;49.470;2023-11-21T06:42:51;17.15;;;7.95;;
70866;SDS011;58487;53.474;49.470;2023-11-21T06:45:18;16.77;;;7.53;;
70866;SDS011;58487;53.474;49.470;2023-11-21T06:47:45;20.30;;;10.13;;
70866;SDS011;58487;53.474;49.470;2023-11-21T06:50:11;17.25;;;8.93;;
70866;SDS011;58487;53.474;49.470;2023-11-21T06:52:38;18.17;;;8.90;;
70866;SDS011;58487;53.474;49.470;2023-11-21T06:55:04;18.45;;;8.68;;
70866;SDS011;58487;53.474;49.470;2023-11-21T06:57:31;18.70;;;8.98;;
70866;SDS011;58487;53.474;49.470;2023-11-21T06:59:57;18.33;;;8.32;;
70866;SDS011;58487;53.474;49.470;2023-11-21T07:02:23;17.77;;;8.15;;
70866;SDS011;58487;53.474;49.470;2023-11-21T07:04:49;17.87;;;7.97;;
70866;SDS011;58487;53.474;49.470;2023-11-21T07:07:15;15.57;;;7.38;;
70866;SDS011;58487;53.474;49.470;2023-11-21T07:09:42;20.63;;;7.93;;
70866;SDS011;58487;53.474;49.470;2023-11-21T07:12:07;15.82;;;7.45;;
70866;SDS011;58487;53.474;49.470;2023-11-21T07:14:34;16.33;;;7.53;;
70866;SDS011;58487;53.474;49.470;2023-11-21T07:17:00;24.38;;;9.48;;
70866;SDS011;58487;53.474;49.470;2023-11-21T07:19:26;26.15;;;9.25;;
70866;SDS011;58487;53.474;49.470;2023-11-21T07:21:52;21.77;;;8.35;;
70866;SDS011;58487;53.474;49.470;2023-11-21T07:24:18;30.88;;;12.18;;
70866;SDS011;58487;53.474;49.470;2023-11-21T07:26:44;18.27;;;6.97;;
70866;SDS011;58487;53.474;49.470;2023-11-21T07:29:10;10.93;;;5.05;;
70866;SDS011;58487;53.474;49.470;2023-11-21T07:31:37;15.20;;;7.03;;
70866;SDS011;58487;53.474;49.470;2023-11-21T07:34:03;18.58;;;7.88;;
70866;SDS011;58487;53.474;49.470;2023-11-21T07:36:29;16.75;;;8.50;;
70866;SDS011;58487;53.474;49.470;2023-11-21T07:38:55;15.33;;;6.50;;
70866;SDS011;58487;53.474;49.470;2023-11-21T07:41:21;13.57;;;6.43;;
70866;SDS011;58487;53.474;49.470;2023-11-21T07:43:48;14.68;;;6.93;;
70866;SDS011;58487;53.474;49.470;2023-11-21T07:46:14;14.20;;;5.75;;
70866;SDS011;58487;53.474;49.470;2023-11-21T07:48:40;15.38;;;7.00;;
70866;SDS011;58487;53.474;49.470;2023-11-21T07:51:07;15.13;;;7.80;;
70866;SDS011;58487;53.474;49.470;2023-11-21T07:53:34;14.45;;;6.32;;
70866;SDS011;58487;53.474;49.470;2023-11-21T07:56:04;12.43;;;5.78;;
70866;SDS011;58487;53.474;49.470;2023-11-21T07:58:33;19.02;;;7.53;;
70866;SDS011;58487;53.474;49.470;2023-11-21T08:01:00;14.45;;;6.38;;
70866;SDS011;58487;53.474;49.470;2023-11-21T08:03:26;12.57;;;5.70;;
70866;SDS011;58487;53.474;49.470;2023-11-21T08:05:52;13.43;;;5.68;;
70866;SDS011;58487;53.474;49.470;2023-11-21T08:08:18;13.63;;;5.90;;
70866;SDS011;58487;53.474;49.470;2023-11-21T08:10:44;11.85;;;4.90;;
70866;SDS011;58487;53.474;49.470;2023-11-21T08:13:14;12.02;;;5.20;;
70866;SDS011;58487;53.474;49.470;2023-11-21T08:15:42;12.27;;;4.93;;
70866;SDS011;58487;53.474;49.470;2023-11-21T08:18:11;11.52;;;4.82;;
70866;SDS011;58487;53.474;49.470;2023-11-21T08:20:40;10.32;;;4.60;;
70866;SDS011;58487;53.474;49.470;2023-11-21T08:23:06;9.48;;;4.20;;
70866;SDS011;58487;53.474;49.470;2023-11-21T08:25:32;13.68;;;5.10;;
70866;SDS011;58487;53.474;49.470;2023-11-21T08:28:00;11.20;;;5.20;;
70866;SDS011;58487;53.474;49.470;2023-11-21T08:30:27;9.43;;;4.30;;
70866;SDS011;58487;53.474;49.470;2023-11-21T08:32:55;12.02;;;5.72;;
70866;SDS011;58487;53.474;49.470;2023-11-21T08:35:24;12.73;;;5.82;;
70866;SDS011;58487;53.474;49.470;2023-11-21T08:37:53;11.43;;;5.40;;
70866;SDS011;58487;53.474;49.470;2023-11-21T08:40:19;15.17;;;5.70;;
70866;SDS011;58487;53.474;49.470;2023-11-21T08:42:46;14.65;;;6.30;;
70866;SDS011;58487;53.474;49.470;2023-11-21T08:45:14;12.25;;;5.60;;
70866;SDS011;58487;53.474;49.470;2023-11-21T08:47:43;14.13;;;6.72;;
70866;SDS011;58487;53.474;49.470;2023-11-21T08:50:13;15.23;;;6.80;;
70866;SDS011;58487;53.474;49.470;2023-11-21T08:52:40;19.77;;;7.37;;
70866;SDS011;58487;53.474;49.470;2023-11-21T08:55:07;14.95;;;6.50;;
70866;SDS011;58487;53.474;49.470;2023-11-21T08:57:40;16.92;;;6.75;;
70866;SDS011;58487;53.474;49.470;2023-11-21T09:00:09;14.63;;;5.93;;
70866;SDS011;58487;53.474;49.470;2023-11-21T09:02:41;16.45;;;5.93;;
70866;SDS011;58487;53.474;49.470;2023-11-21T09:05:07;14.97;;;5.47;;
70866;SDS011;58487;53.474;49.470;2023-11-21T09:07:35;12.32;;;5.15;;
70866;SDS011;58487;53.474;49.470;2023-11-21T09:10:02;11.90;;;4.97;;
70866;SDS011;58487;53.474;49.470;2023-11-21T09:12:29;10.65;;;4.68;;
70866;SDS011;58487;53.474;49.470;2023-11-21T09:14:55;9.50;;;4.63;;
70866;SDS011;58487;53.474;49.470;2023-11-21T09:17:21;8.23;;;4.13;;
70866;SDS011;58487;53.474;49.470;2023-11-21T09:19:47;8.90;;;4.35;;
70866;SDS011;58487;53.474;49.470;2023-11-21T09:22:15;9.63;;;4.03;;
70866;SDS011;58487;53.474;49.470;2023-11-21T09:24:42;10.60;;;4.35;;
70866;SDS011;58487;53.474;49.470;2023-11-21T09:27:08;9.27;;;4.55;;
70866;SDS011;58487;53.474;49.470;2023-11-21T09:29:35;11.00;;;4.80;;
70866;SDS011;58487;53.474;49.470;2023-11-21T09:32:05;9.75;;;4.53;;
70866;SDS011;58487;53.474;49.470;2023-11-21T09:34:39;13.07;;;5.60;;
70866;SDS011;58487;53.474;49.470;2023-11-21T09:37:05;19.25;;;7.40;;
70866;SDS011;58487;53.474;49.470;2023-11-21T09:39:32;13.77;;;6.03;;
70866;SDS011;58487;53.474;49.470;2023-11-21T09:42:12;20.70;;;7.40;;
70866;SDS011;58487;53.474;49.470;2023-11-21T09:47:17;14.85;;;6.63;;
70866;SDS011;58487;53.474;49.470;2023-11-21T09:49:46;15.52;;;7.40;;
70866;SDS011;58487;53.474;49.470;2023-11-21T09:52:27;14.35;;;6.43;;
70866;SDS011;58487;53.474;49.470;2023-11-21T09:54:54;13.67;;;5.97;;
70866;SDS011;58487;53.474;49.470;2023-11-21T09:57:25;13.75;;;5.57;;
70866;SDS011;58487;53.474;49.470;2023-11-21T09:59:53;11.18;;;5.25;;
70866;SDS011;58487;53.474;49.470;2023-11-21T10:02:27;16.10;;;5.80;;
70866;SDS011;58487;53.474;49.470;2023-11-21T10:04:58;12.80;;;5.80;;
70866;SDS011;58487;53.474;49.470;2023-11-21T10:07:25;14.03;;;6.60;;
70866;SDS011;58487;53.474;49.470;2023-11-21T10:09:52;12.65;;;6.15;;
70866;SDS011;58487;53.474;49.470;2023-11-21T10:12:18;18.02;;;6.57;;
70866;SDS011;58487;53.474;49.470;2023-11-21T10:14:48;10.85;;;4.20;;
70866;SDS011;58487;53.474;49.470;2023-11-21T10:17:15;17.55;;;6.82;;
70866;SDS011;58487;53.474;49.470;2023-11-21T10:19:45;17.90;;;6.70;;
70866;SDS011;58487;53.474;49.470;2023-11-21T10:22:13;18.08;;;7.13;;
70866;SDS011;58487;53.474;49.470;2023-11-21T10:24:42;16.33;;;6.88;;
70866;SDS011;58487;53.474;49.470;2023-11-21T10:27:09;19.90;;;8.27;;
70866;SDS011;58487;53.474;49.470;2023-11-21T10:29:35;16.08;;;6.85;;
70866;SDS011;58487;53.474;49.470;2023-11-21T10:32:04;14.27;;;6.20;;
70866;SDS011;58487;53.474;49.470;2023-11-21T10:34:31;14.05;;;6.35;;
70866;SDS011;58487;53.474;49.470;2023-11-21T10:36:57;11.18;;;4.57;;
70866;SDS011;58487;53.474;49.470;2023-11-21T10:39:23;11.23;;;5.05;;
70866;SDS011;58487;53.474;49.470;2023-11-21T10:41:56;14.52;;;5.53;;
70866;SDS011;58487;53.474;49.470;2023-11-21T10:44:22;11.77;;;4.60;;
70866;SDS011;58487;53.474;49.470;2023-11-21T10:46:50;12.02;;;4.97;;
70866;SDS011;58487;53.474;49.470;2023-11-21T10:49:18;12.23;;;4.90;;
70866;SDS011;58487;53.474;49.470;2023-11-21T10:51:45;11.20;;;4.68;;
70866;SDS011;58487;53.474;49.470;2023-11-21T10:54:11;12.93;;;4.95;;
70866;SDS011;58487;53.474;49.470;2023-11-21T10:56:38;10.17;;;4.53;;
70866;SDS011;58487;53.474;49.470;2023-11-21T10:59:15;12.43;;;5.43;;
70866;SDS011;58487;53.474;49.470;2023-11-21T11:01:45;14.43;;;5.20;;
70866;SDS011;58487;53.474;49.470;2023-11-21T11:04:11;14.50;;;6.00;;
70866;SDS011;58487;53.474;49.470;2023-11-21T11:06:53;12.30;;;5.53;;
70866;SDS011;58487;53.474;49.470;2023-11-21T11:09:22;13.30;;;6.10;;
70866;SDS011;58487;53.474;49.470;2023-11-21T11:11:49;12.68;;;5.28;;
70866;SDS011;58487;53.474;49.470;2023-11-21T11:14:16;12.52;;;5.95;;
70866;SDS011;58487;53.474;49.470;2023-11-21T11:16:45;13.15;;;6.10;;
70866;SDS011;58487;53.474;49.470;2023-11-21T11:19:11;13.95;;;6.28;;
70866;SDS011;58487;53.474;49.470;2023-11-21T11:21:51;11.40;;;5.80;;
70866;SDS011;58487;53.474;49.470;2023-11-21T11:24:50;11.32;;;5.15;;
70866;SDS011;58487;53.474;49.470;2023-11-21T11:30:16;11.32;;;5.05;;
70866;SDS011;58487;53.474;49.470;2023-11-21T11:35:29;11.43;;;4.73;;
70866;SDS011;58487;53.474;49.470;2023-11-21T11:38:03;17.00;;;5.65;;
70866;SDS011;58487;53.474;49.470;2023-11-21T11:40:39;14.40;;;5.45;;
70866;SDS011;58487;53.474;49.470;2023-11-21T11:43:06;13.15;;;5.55;;
70866;SDS011;58487;53.474;49.470;2023-11-21T11:45:33;10.57;;;4.28;;
70866;SDS011;58487;53.474;49.470;2023-11-21T11:48:01;14.67;;;5.77;;
70866;SDS011;58487;53.474;49.470;2023-11-21T11:50:29;13.95;;;5.75;;
70866;SDS011;58487;53.474;49.470;2023-11-21T11:52:57;11.73;;;5.30;;
70866;SDS011;58487;53.474;49.470;2023-11-21T11:55:40;17.13;;;6.28;;
70866;SDS011;58487;53.474;49.470;2023-11-21T11:58:07;13.07;;;5.30;;
70866;SDS011;58487;53.474;49.470;2023-11-21T12:00:33;14.73;;;6.87;;
70866;SDS011;58487;53.474;49.470;2023-11-21T12:03:03;7.95;;;3.38;;
70866;SDS011;58487;53.474;49.470;2023-11-21T12:05:31;11.10;;;4.68;;
70866;SDS011;58487;53.474;49.470;2023-11-21T12:08:02;11.77;;;4.65;;
70866;SDS011;58487;53.474;49.470;2023-11-21T12:10:29;13.02;;;5.85;;
70866;SDS011;58487;53.474;49.470;2023-11-21T12:12:58;14.43;;;5.30;;
70866;SDS011;58487;53.474;49.470;2023-11-21T12:15:25;13.85;;;6.18;;
70866;SDS011;58487;53.474;49.470;2023-11-21T12:17:52;11.43;;;5.25;;
70866;SDS011;58487;53.474;49.470;2023-11-21T12:20:19;13.65;;;5.65;;
70866;SDS011;58487;53.474;49.470;2023-11-21T12:22:47;13.80;;;5.93;;
70866;SDS011;58487;53.474;49.470;2023-11-21T12:25:17;12.53;;;5.23;;
70866;SDS011;58487;53.474;49.470;2023-11-21T12:27:51;11.10;;;4.45;;
70866;SDS011;58487;53.474;49.470;2023-11-21T12:30:18;15.70;;;5.43;;
70866;SDS011;58487;53.474;49.470;2023-11-21T12:32:54;13.18;;;5.75;;
70866;SDS011;58487;53.474;49.470;2023-11-21T12:35:24;9.93;;;4.50;;
70866;SDS011;58487;53.474;49.470;2023-11-21T12:37:52;17.97;;;8.93;;
70866;SDS011;58487;53.474;49.470;2023-11-21T12:40:20;15.60;;;6.18;;
70866;SDS011;58487;53.474;49.470;2023-11-21T12:42:49;8.50;;;3.47;;
70866;SDS011;58487;53.474;49.470;2023-11-21T12:47:49;12.18;;;5.35;;
70866;SDS011;58487;53.474;49.470;2023-11-21T12:50:20;11.03;;;4.43;;
70866;SDS011;58487;53.474;49.470;2023-11-21T12:52:54;10.45;;;4.78;;
70866;SDS011;58487;53.474;49.470;2023-11-21T12:55:24;12.13;;;4.82;;
70866;SDS011;58487;53.474;49.470;2023-11-21T12:57:52;20.45;;;8.70;;
70866;SDS011;58487;53.474;49.470;2023-11-21T13:00:20;18.40;;;7.97;;
70866;SDS011;58487;53.474;49.470;2023-11-21T13:03:03;9.83;;;4.33;;
70866;SDS011;58487;53.474;49.470;2023-11-21T13:05:31;16.05;;;5.63;;
70866;SDS011;58487;53.474;49.470;2023-11-21T13:08:04;18.38;;;7.10;;
70866;SDS011;58487;53.474;49.470;2023-11-21T13:10:38;21.73;;;7.53;;
70866;SDS011;58487;53.474;49.470;2023-11-21T13:13:05;19.02;;;8.07;;
70866;SDS011;58487;53.474;49.470;2023-11-21T13:15:39;18.87;;;8.53;;
70866;SDS011;58487;53.474;49.470;2023-11-21T13:18:08;23.98;;;9.52;;
70866;SDS011;58487;53.474;49.470;2023-11-21T13:20:36;20.20;;;7.78;;
70866;SDS011;58487;53.474;49.470;2023-11-21T13:23:07;10.50;;;4.80;;
70866;SDS011;58487;53.474;49.470;2023-11-21T13:25:34;23.83;;;8.30;;
70866;SDS011;58487;53.474;49.470;2023-11-21T13:28:02;23.17;;;8.77;;
70866;SDS011;58487;53.474;49.470;2023-11-21T13:30:28;12.10;;;5.68;;
70866;SDS011;58487;53.474;49.470;2023-11-21T13:33:03;10.43;;;4.75;;
70866;SDS011;58487;53.474;49.470;2023-11-21T13:35:37;16.27;;;6.32;;
70866;SDS011;58487;53.474;49.470;2023-11-21T13:38:08;15.48;;;6.38;;
70866;SDS011;58487;53.474;49.470;2023-11-21T13:40:36;20.03;;;8.43;;
70866;SDS011;58487;53.474;49.470;2023-11-21T13:43:08;22.23;;;8.45;;
70866;SDS011;58487;53.474;49.470;2023-11-21T13:45:38;15.80;;;5.13;;
70866;SDS011;58487;53.474;49.470;2023-11-21T13:48:06;19.23;;;8.75;;
70866;SDS011;58487;53.474;49.470;2023-11-21T13:50:37;18.88;;;7.32;;
70866;SDS011;58487;53.474;49.470;2023-11-21T13:53:04;16.17;;;6.70;;
70866;SDS011;58487;53.474;49.470;2023-11-21T13:55:46;11.43;;;5.55;;
70866;SDS011;58487;53.474;49.470;2023-11-21T13:58:15;8.05;;;3.75;;
70866;SDS011;58487;53.474;49.470;2023-11-21T14:00:48;13.63;;;4.70;;
70866;SDS011;58487;53.474;49.470;2023-11-21T14:03:22;19.50;;;8.00;;
70866;SDS011;58487;53.474;49.470;2023-11-21T14:06:03;19.27;;;8.60;;
70866;SDS011;58487;53.474;49.470;2023-11-21T14:08:40;22.75;;;9.88;;
70866;SDS011;58487;53.474;49.470;2023-11-21T14:11:07;22.15;;;9.85;;
70866;SDS011;58487;53.474;49.470;2023-11-21T14:13:35;12.85;;;5.32;;
70866;SDS011;58487;53.474;49.470;2023-11-21T14:16:01;21.92;;;8.63;;
70866;SDS011;58487;53.474;49.470;2023-11-21T14:18:28;17.50;;;7.00;;
70866;SDS011;58487;53.474;49.470;2023-11-21T14:21:06;19.67;;;8.82;;
70866;SDS011;58487;53.474;49.470;2023-11-21T14:23:36;14.95;;;5.95;;
70866;SDS011;58487;53.474;49.470;2023-11-21T14:26:04;17.58;;;7.40;;
70866;SDS011;58487;53.474;49.470;2023-11-21T14:28:31;24.73;;;10.30;;
70866;SDS011;58487;53.474;49.470;2023-11-21T14:31:00;30.67;;;12.23;;
70866;SDS011;58487;53.474;49.470;2023-11-21T14:33:27;17.00;;;7.50;;
70866;SDS011;58487;53.474;49.470;2023-11-21T14:35:53;22.85;;;9.07;;
70866;SDS011;58487;53.474;49.470;2023-11-21T14:38:20;18.27;;;8.10;;